createdAt,value
2022-10-22T00:03:38.237Z,8.45
2022-10-22T00:18:40.782Z,8.55
2022-10-22T00:33:42.768Z,8.55
2022-10-22T00:48:44.813Z,8.56
2022-10-22T01:03:46.763Z,8.68
2022-10-22T01:18:58.185Z,8.73
2022-10-22T01:34:01.425Z,8.86
2022-10-22T01:49:17.575Z,8.92
2022-10-22T02:04:21.841Z,8.99
2022-10-22T02:19:38.761Z,9.04
2022-10-22T02:34:41.518Z,9.08
2022-10-22T02:49:43.418Z,9.17
2022-10-22T03:04:45.989Z,9.23
2022-10-22T03:19:47.876Z,9.34
2022-10-22T03:34:49.800Z,9.42
2022-10-22T03:49:52.457Z,9.51
2022-10-22T04:04:54.416Z,9.54
2022-10-22T04:19:56.277Z,9.63
2022-10-22T04:34:58.195Z,9.72
2022-10-22T04:50:00.113Z,9.81
2022-10-22T05:05:02.669Z,9.87
2022-10-22T05:20:05.696Z,9.97
2022-10-22T05:35:07.858Z,10.02
2022-10-22T05:50:09.897Z,10.07
2022-10-22T06:05:11.796Z,10.21
2022-10-22T06:20:14.842Z,10.37
2022-10-22T06:35:16.799Z,10.41
2022-10-22T06:50:18.728Z,10.54
2022-10-22T07:05:21.137Z,10.68
2022-10-22T07:20:23.095Z,10.78
2022-10-22T07:35:25.158Z,10.88
2022-10-22T07:50:27.319Z,10.88
2022-10-22T08:05:29.238Z,10.91
2022-10-22T08:20:31.337Z,10.92
2022-10-22T08:35:33.359Z,11.03
2022-10-22T08:50:41.088Z,11.17
2022-10-22T09:06:10.296Z,11.28
2022-10-22T09:21:39.673Z,11.44
2022-10-22T09:36:41.619Z,11.62
2022-10-22T09:52:00.271Z,11.74
2022-10-22T10:07:02.317Z,11.85
2022-10-22T10:22:33.047Z,11.86
2022-10-22T10:37:41.826Z,11.90
2022-10-22T10:53:08.716Z,12.17
2022-10-22T11:08:25.570Z,12.27
2022-10-22T11:23:46.663Z,12.53
2022-10-22T11:38:48.837Z,12.65
2022-10-22T11:53:57.327Z,12.68
2022-10-22T12:09:05.031Z,12.84
2022-10-22T12:24:08.056Z,12.84
2022-10-22T12:39:20.058Z,12.88
2022-10-22T12:54:31.160Z,12.91
2022-10-22T13:09:46.120Z,12.91
2022-10-22T13:24:51.673Z,12.98
2022-10-22T13:39:53.840Z,13.06
2022-10-22T13:54:55.747Z,13.02
2022-10-22T14:09:58.242Z,12.94
2022-10-22T14:25:00.150Z,12.86
2022-10-22T14:40:02.875Z,12.81
2022-10-22T14:55:05.126Z,12.81
2022-10-22T15:10:08.583Z,12.75
2022-10-22T15:25:10.823Z,12.72
2022-10-22T15:40:12.960Z,12.71
2022-10-22T15:55:15.063Z,12.69
2022-10-22T16:10:17.081Z,12.71
2022-10-22T16:25:18.981Z,12.67
2022-10-22T16:40:21.260Z,12.65
2022-10-22T16:55:23.380Z,12.69
2022-10-22T17:10:25.431Z,12.68
2022-10-22T17:25:43.929Z,12.74
2022-10-22T17:40:45.819Z,12.79
2022-10-22T17:55:47.740Z,12.79
2022-10-22T18:10:50.018Z,12.79
2022-10-22T18:25:52.441Z,12.86
2022-10-22T18:40:54.309Z,12.88
2022-10-22T18:55:56.844Z,12.89
2022-10-22T19:10:58.942Z,12.96
2022-10-22T19:26:14.018Z,12.99
2022-10-22T19:41:19.210Z,13.02
2022-10-22T19:56:22.500Z,13.06
2022-10-22T20:11:27.695Z,13.13
2022-10-22T20:26:31.835Z,13.13
2022-10-22T20:41:35.451Z,13.22
2022-10-22T20:56:39.510Z,13.25
2022-10-22T21:11:42.823Z,13.27
2022-10-22T21:26:45.058Z,13.27
2022-10-22T21:41:47.000Z,13.26
2022-10-22T21:56:49.309Z,13.22
2022-10-22T22:11:51.201Z,13.19
2022-10-22T22:26:53.151Z,13.23
2022-10-22T22:41:55.031Z,13.22
2022-10-22T22:56:57.131Z,13.22
2022-10-22T23:11:59.021Z,13.18
2022-10-22T23:27:03.015Z,13.15
2022-10-22T23:42:04.921Z,13.12
2022-10-22T23:57:06.889Z,13.13
